• Join FlightAware (Why Join?)
  • Login
  • US Flag 
03:43PM EDT


 

Airport Tracker/Info


-or-


 

Live Flight TrackerFlight Track Log ✈ ASQ5678 ✈ 24-Jun-2013 ✈ KEWR - KCVG

Flight Track Log - Related Links

Times and Time Zones

All times are in EDT time to prevent confusion due to time zone crossing. See the ASQ5678 flight status page for this flight to view local times or setup timezone preferences in your user account.

Time Position Orientation Groundspeed Altitude Reporting Facility
EDT Latitude Longitude Course Direction KTS MPH feet Rate Location/Type
08:54PM 40.6558 -74.1878 224° Southwest 176 203 1,200  Level New York Center
08:55PM 40.6333 -74.2167 224° Southwest 207 238 1,900 1,560 Climbing New York TRACON
08:56PM 40.6167 -74.3000 255° West 243 280 3,700 1,860 Climbing New York TRACON
08:57PM 40.6167 -74.3833 270° West 247 284 5,700 1,980 Climbing New York TRACON
08:59PM 40.7164 -74.5275 312° West 227 261 10,600 1,860 Climbing New York Center
09:00PM 40.7089 -74.6283 264° West 247 284 12,200 1,680 Climbing New York Center
09:01PM 40.7042 -74.7156 266° West 275 316 14,100 1,920 Climbing New York Center
09:02PM 40.6983 -74.8222 266° West 275 316 16,100 1,560 Climbing New York Center
09:03PM 40.6928 -74.9231 266° West 275 316 17,300 1,020 Climbing New York Center
09:04PM 40.6869 -75.0294 266° West 280 322 18,200 960 Climbing New York Center
09:05PM 40.6625 -75.1236 251° West 302 348 19,200 960 Climbing New York Center
09:06PM 40.6150 -75.2300 240° Southwest 313 360 20,200 960 Climbing New York Center
09:07PM 40.5669 -75.3389 240° Southwest 335 386 21,200 960 Climbing New York Center
09:08PM 40.5125 -75.4528 238° Southwest 359 413 22,200 900 Climbing New York Center
09:09PM 40.4600 -75.5664 239° Southwest 364 419 23,100 900 Climbing New York Center
09:10PM 40.4072 -75.6853 240° Southwest 374 430 24,100 900 Climbing New York Center
09:11PM 40.3522 -75.8014 238° Southwest 379 436 24,900 900 Climbing New York Center
09:12PM 40.2883 -75.9328 238° Southwest 385 443 26,000 540 Climbing New York Center
09:13PM 40.2286 -76.0561 238° Southwest 396 456 26,000  Level New York Center
09:14PM 40.1753 -76.1744 239° Southwest 402 463 26,000  Level New York Center
09:15PM 40.1017 -76.3206 237° Southwest 436 502 26,000  Level New York Center
09:16PM 40.0389 -76.4594 239° Southwest 443 510 26,000  Level New York Center
09:17PM 39.9758 -76.5978 239° Southwest 448 516 26,000  Level New York Center
09:19PM 39.8569 -76.8536 239° Southwest 456 525 26,000  Level Washington Center
09:20PM 39.7889 -76.9956 238° Southwest 456 525 26,000  Level Washington Center
09:21PM 39.7225 -77.1372 239° Southwest 456 525 26,000  Level Washington Center
09:22PM 39.6561 -77.2789 239° Southwest 461 531 26,000  Level Washington Center
09:23PM 39.5894 -77.4200 239° Southwest 467 537 26,000  Level Washington Center
09:24PM 39.5267 -77.5636 240° Southwest 467 537 26,000  Level Washington Center
09:25PM 39.4844 -77.7186 251° West 460 529 26,000  Level Washington Center
09:26PM 39.4419 -77.8731 250° West 460 529 26,000  Level Washington Center
09:28PM 39.3971 -78.1088 250° West  Level FlightAware Approximate
09:29PM 39.3222 -78.3281 249° West 460 529 26,000  Level Washington Center
09:31PM 39.2397 -78.6333 251° West 460 529 26,000  Level Washington Center
09:32PM 39.2003 -78.7842 251° West 460 529 26,000  Level Washington Center
09:33PM 39.1567 -78.9350 250° West 460 529 26,000  Level Washington Center
09:34PM 39.1169 -79.0831 251° West 460 529 26,000  Level Washington Center
09:35PM 39.1296 -79.0180 249° West  Level FlightAware Approximate
09:35PM 39.0750 -79.2361 251° West 455 524 26,000  Level Washington Center
09:36PM 39.0328 -79.3864 250° West 455 524 26,000  Level Washington Center
09:37PM 38.9906 -79.5311 249° West 450 518 26,000  Level Washington Center
09:38PM 38.9478 -79.6889 251° West 457 526 26,000  Level Washington Center
09:39PM 38.9050 -79.8439 251° West 465 535 26,000  Level Washington Center
09:40PM 38.8614 -79.9739 247° West 452 520 26,000  Level Indianapolis Center
09:41PM 38.8167 -80.1422 251° West 453 521 26,000  Level Indianapolis Center
09:42PM 38.8139 -80.3028 269° West 450 518 26,000  Level Indianapolis Center
09:43PM 38.8103 -80.4611 268° West 447 514 26,000  Level Indianapolis Center
09:44PM 38.8044 -80.6192 267° West 444 511 26,000  Level Indianapolis Center
09:45PM 38.7997 -80.7800 268° West 450 518 26,000  Level Indianapolis Center
09:46PM 38.7953 -80.9381 268° West 447 514 26,000  Level Indianapolis Center
09:47PM 38.7906 -81.0972 268° West 448 516 26,000  Level Indianapolis Center
09:48PM 38.7847 -81.2558 267° West 447 514 26,000  Level Indianapolis Center
09:49PM 38.7794 -81.4133 268° West 447 514 26,000  Level Indianapolis Center
09:50PM 38.7717 -81.6036 267° West 447 514 26,000  Level Indianapolis Center
09:51PM 38.7661 -81.7539 267° West 448 516 26,000  Level Indianapolis Center
09:52PM 38.7594 -81.9097 267° West 445 512 26,000  Level Indianapolis Center
09:53PM 38.7453 -82.0656 263° West 444 511 26,000  Level Indianapolis Center
09:54PM 38.7044 -82.2150 251° West 442 509 26,000  Level Indianapolis Center
09:55PM 38.6653 -82.3653 252° West 446 513 26,000 -540 Level Indianapolis Center
09:56PM 38.6222 -82.5244 251° West 445 512 25,000 -1,020 Descending Indianapolis Center
09:57PM 38.5750 -82.6964 251° West 439 505 24,000 -1,200 Descending Indianapolis Center
09:58PM 38.5369 -82.8375 251° West 425 489 22,600 -1,440 Descending Indianapolis Center
09:59PM 38.4997 -82.9744 251° West 411 473 21,100 -1,560 Descending Indianapolis Center
10:00PM 38.4622 -83.1111 251° West 408 470 19,500 -1,560 Descending Indianapolis Center
10:01PM 38.4256 -83.2444 251° West 402 463 18,000 -1,440 Descending Indianapolis Center
10:02PM 38.3894 -83.3761 251° West 395 455 16,600 -1,440 Descending Indianapolis Center
10:03PM 38.3964 -83.5050 274° West 378 435 15,100 -1,620 Descending Indianapolis Center
10:04PM 38.4622 -83.6322 303° West 368 423 13,300 -1,680 Descending Indianapolis Center
10:05PM 38.5172 -83.7392 303° West 361 415 11,800 -1,380 Descending Indianapolis Center
10:06PM 38.5733 -83.8444 304° West 358 412 10,500 -900 Descending Indianapolis Center
10:07PM 38.6264 -83.9500 303° West 355 409 10,000 -300 Descending Indianapolis Center
10:08PM 38.6800 -84.0500 305° West 350 403 9,900 -60 Descending Indianapolis Center
10:09PM 38.7394 -84.1481 308° West 345 397 9,900 -540 Level Indianapolis Center
10:10PM 38.7917 -84.2147 315° West 286 329 8,900 -1,260 Descending Indianapolis Center
10:11PM 38.8433 -84.2822 315° West 265 305 7,400 -1,020 Descending Indianapolis Center
10:12PM 38.8944 -84.3475 315° West 258 297 6,900 -300 Descending Indianapolis Center
10:13PM 38.9453 -84.4133 315° West 256 295 6,900  Level Indianapolis Center
10:15PM 38.9939 -84.4778 314° West 249 287 6,900 -840 Level Indianapolis Center
10:16PM 39.0678 -84.5158 338° Northwest 256 295 5,300 -1,680 Descending Indianapolis Center
10:17PM 39.1400 -84.5211 357° North 258 297 3,500 -1,200 Descending Indianapolis Center
10:18PM 39.2064 -84.5258 357° North 248 285 2,900 -300 Descending Indianapolis Center
10:19PM 39.2619 -84.5369 351° North 221 254 3,000  Climbing Indianapolis Center
10:20PM 39.2578 -84.6058 266° West 183 211 2,900 -60 Descending Indianapolis Center
10:21PM 39.2175 -84.6422 215° Southwest 175 201 2,900 -60 Level Indianapolis Center
10:22PM 39.1739 -84.6792 213° Southwest 178 205 2,800 -300 Descending Indianapolis Center
10:23PM 39.1364 -84.6794 180° South 170 196 2,300 -780 Descending Indianapolis Center
10:24PM 39.0833 -84.6833 183° South 129 148 1,300 -1,020 Descending Cincinnati TRACON
10:26PM 39.0488 -84.6678 195° South  Level Estimated